KRTS

Reno / Stead Airport

Reno, Nevada, USA
METAR KRTS 211955Z AUTO 22003KT 10SM CLR 02/M07 A3027 RMK AO2
Observed Flight Rules
Jan-21 @ 19:55 UTC (34 minutes ago) Visual Flight Rules
Wind Visibility Clouds
220° at 3 knots 10 miles
  • Clear skies
Temperatures Readings
Current 2°C / 36°F
Dewpoint -7°C / 19°F
Humidity 52%
Altimeter 30.27" Hg
Pressure 1025 hPa
Elevation 1540
METAR KRTS 211955Z AUTO 22003KT 10SM CLR 02/M07 A3027 RMK AO2
Observed Flight Rules
Jan-21 @ 19:55 UTC
(34 minutes ago)
VFR
Wind Visibility
220° at 3 knots 10 miles
Clouds
  • Clear skies
Temperature Dewpoint
2°C / 36°F -7°C / 19°F
Humidity Altimeter Pressure
52% 30.27" Hg 1025 hPa